Station: Ballera  

  Atmospheric Gas Attenuation - ITU Rec 676-11   ----------------- dB/100km -----------------
Date Time Temp RH % AH g/m3 Dew Point Wind Direction Speed kph Gust kph Barometer mB Rainfall Since 9am 24GHz 47GHz 76GHz 122GHz 134GHz 241GHz
04/09 21:00 24.5 33 7.39 7.2 17 19 1016.3 0 16.6 21.4 30.9 80.7 72.6 249.3
04/09 20:50 24.8 32 7.28 7 17 19 1016.2 0 16.3 21.2 30.4 79.4 71.1 244.2
04/09 20:40 25.2 30 6.98 6.4 17 20 1016.2 0 15.7 20.7 29.3 76.4 67.5 231.6
04/09 20:30 25 31 7.14 6.7 17 19 1016.1 0 16.0 21.0 29.9 78.0 69.4 238.2
04/09 20:20 25.5 27 6.39 5.1 15 20 1016.1 0 14.5 19.9 27.3 71.1 61.1 208.9
04/09 20:10 25.6 26 6.19 4.7 15 19 1016 0 14.0 19.6 26.6 69.3 58.9 201.3
04/09 20:00 26.1 27 6.61 5.7 13 19 1015.9 0 14.9 20.0 27.8 72.4 62.9 215.4
04/09 19:50 25.8 25 6.02 4.3 13 15 1015.8 0 13.7 19.4 26.0 67.7 57.0 194.7
04/09 19:40 26.4 25 6.22 4.8 13 17 1015.6 0 14.1 19.5 26.4 68.9 58.6 200.4
04/09 19:30 26 26 6.33 5 13 17 1015.4 0 14.3 19.7 26.9 70.1 60.0 205.4
04/09 19:20 27.2 22 5.73 3.7 15 19 1015.5 0 13.0 18.7 24.7 64.2 53.1 181.2
04/09 19:10 27.5 21 5.56 3.2 11 19 1015.3 0 12.7 18.4 24.1 62.6 51.3 174.6
04/09 19:00 28.2 22 6.05 4.5 15 20 1015.2 0 13.7 18.9 25.4 66.0 55.7 190.2
04/09 18:50 29.8 16 4.8 1.3 17 20 1015.2 0 11.0 17.1 21.3 55.1 42.7 144.7
04/09 18:40 30.2 16 4.91 1.6 15 20 1015.1 0 11.3 17.2 21.5 55.7 43.5 147.6
04/09 18:30 30.3 16 4.93 1.7 15 20 1015 0 11.3 17.2 21.5 55.8 43.6 148.1
04/09 18:20 30.9 15 4.78 1.3 15 22 1015 0 11.0 16.9 21.0 54.3 42.0 142.2
04/09 18:10 31.4 14 4.58 0.7 19 24 1014.9 0 10.5 16.6 20.3 52.5 39.9 134.9
04/09 18:00 31.9 14 4.7 1.1 17 24 1014.7 0 10.8 16.6 20.5 53.1 40.7 138.0
04/09 17:50 32.2 14 4.78 1.3 19 24 1014.7 0 10.9 16.7 20.6 53.5 41.3 140.0
04/09 17:40 32.8 13 4.58 0.8 19 28 1014.6 0 10.5 16.3 20.0 51.6 39.2 132.8
04/09 17:30 33 13 4.63 0.9 22 30 1014.4 0 10.6 16.4 20.0 51.9 39.6 134.0
04/09 17:20 33.2 13 4.68 1.1 26 33 1014.4 0 10.7 16.4 20.1 52.1 39.9 135.3
04/09 17:10 33.4 13 4.73 1.3 22 32 1014.4 0 10.8 16.4 20.2 52.3 40.3 136.5
04/09 17:00 33.3 13 4.7 1.2 19 32 1014.2 0 10.7 16.4 20.1 52.2 40.1 135.7
04/09 16:50 33.3 14 5.07 2.2 20 30 1014.3 0 11.5 16.8 21.1 54.9 43.4 147.4
04/09 16:40 33.6 13 4.78 1.4 22 30 1014.4 0 10.9 16.4 20.3 52.6 40.6 137.8
04/09 16:30 33.9 13 4.85 1.6 22 35 1014.3 0 11.0 16.4 20.4 52.9 41.1 139.5
04/09 16:20 33.8 12 4.46 0.5 20 28 1014.5 0 10.2 16.0 19.4 50.2 37.7 127.5
04/09 16:10 33.8 12 4.46 0.5 24 41 1014.6 0 10.2 16.0 19.4 50.2 37.7 127.5
04/09 16:00 33.6 14 5.15 2.4 22 35 1014.4 0 11.6 16.8 21.3 55.3 43.9 149.4
04/09 15:50 34.4 13 4.98 2 20 28 1014.7 0 11.3 16.5 20.7 53.5 42.0 142.8
04/09 15:40 34.1 13 4.91 1.8 22 33 1014.8 0 11.1 16.5 20.5 53.2 41.6 141.1
04/09 15:30 33.9 14 5.23 2.7 24 35 1014.8 0 11.8 16.9 21.4 55.7 44.5 151.5
04/09 15:20 34.2 13 4.93 1.9 28 35 1014.9 0 11.2 16.5 20.6 53.3 41.7 141.6
04/09 15:10 34.2 13 4.93 1.9 24 35 1015 0 11.2 16.5 20.6 53.3 41.7 141.6
04/09 15:00 34.7 13 5.06 2.3 26 41 1015 0 11.4 16.6 20.8 54.0 42.6 144.8
04/09 14:50 34.1 15 5.66 3.8 22 35 1015.2 0 12.7 17.3 22.6 58.7 48.3 164.9
04/09 14:40 34 15 5.63 3.7 26 41 1015.3 0 12.6 17.3 22.5 58.6 48.1 164.1
04/09 14:30 34.1 15 5.66 3.8 24 33 1015.4 0 12.7 17.3 22.6 58.7 48.3 164.9
04/09 14:20 33.9 15 5.6 3.7 26 39 1015.6 0 12.6 17.3 22.5 58.4 47.9 163.4
04/09 14:10 33.9 15 5.6 3.7 30 43 1015.7 0 12.6 17.3 22.5 58.4 47.9 163.4
04/09 14:00 33.6 16 5.88 4.3 30 41 1015.8 0 13.1 17.7 23.3 60.7 50.7 173.1
04/09 13:50 33.2 18 6.48 5.7 30 39 1016 0 14.4 18.5 25.2 65.6 56.5 193.8
04/09 13:40 32.8 18 6.34 5.4 32 41 1016.2 0 14.1 18.4 24.9 64.8 55.5 190.0
04/09 13:30 33.3 18 6.51 5.8 30 41 1016.4 0 14.4 18.5 25.2 65.8 56.8 194.6
04/09 13:20 33.5 17 6.22 5.1 30 43 1016.6 0 13.8 18.1 24.4 63.4 53.9 184.6
04/09 13:10 32.5 19 6.59 5.9 32 44 1016.7 0 14.6 18.8 25.7 67.1 58.1 199.2
04/09 13:00 32.2 19 6.48 5.7 32 44 1017 0 14.4 18.7 25.5 66.5 57.3 196.2
04/09 12:50 32.5 20 6.94 6.7 32 41 1017.2 0 15.3 19.2 26.8 69.8 61.5 211.2
04/09 12:40 31.6 21 6.94 6.6 30 43 1017.5 0 15.4 19.4 27.1 70.6 62.2 213.5
04/09 12:30 31.6 21 6.94 6.6 32 41 1017.6 0 15.4 19.4 27.1 70.6 62.2 213.5
04/09 12:20 31.5 21 6.9 6.5 33 43 1017.9 0 15.3 19.4 27.0 70.4 61.9 212.4
04/09 12:10 30.9 22 7 6.7 30 41 1018.1 0 15.5 19.6 27.5 71.7 63.4 217.5
04/09 12:00 30.6 23 7.21 7.1 32 41 1018.1 0 16.0 19.9 28.2 73.7 65.7 225.7
04/09 11:50 30 23 6.98 6.6 33 44 1018.4 0 15.5 19.8 27.7 72.3 63.9 219.2
04/09 11:40 29.6 25 7.42 7.5 32 43 1018.5 0 16.4 20.4 29.2 76.3 68.7 236.0
04/09 11:30 29.7 24 7.16 7 28 39 1018.6 0 15.9 20.1 28.4 74.1 65.9 226.4
04/09 11:20 29.1 26 7.51 7.7 24 33 1019 0 16.6 20.7 29.7 77.6 70.0 240.8
04/09 11:10 28.2 27 7.42 7.4 28 35 1019.2 0 16.5 20.7 29.7 77.7 69.9 240.1
04/09 11:00 28.7 27 7.63 7.9 28 37 1019.2 0 16.9 20.9 30.2 79.0 71.7 246.4
04/09 10:50 27.6 28 7.45 7.5 28 37 1019.4 0 16.6 20.9 30.0 78.5 70.7 243.0
04/09 10:40 27.3 29 7.59 7.7 32 43 1019.4 0 16.9 21.2 30.6 80.0 72.5 249.1
04/09 10:30 26.7 31 7.85 8.2 26 32 1019.4 0 17.4 21.7 31.7 82.9 75.8 260.8
04/09 10:20 26 34 8.28 8.9 30 39 1019.7 0 18.3 22.4 33.4 87.4 81.2 279.8
04/09 10:10 26.2 32 7.88 8.2 30 37 1019.6 0 17.5 21.8 32.0 83.6 76.6 263.6
04/09 10:00 25.7 32 7.66 7.8 30 37 1019.7 0 17.1 21.6 31.4 82.2 74.7 256.7
04/09 09:50 25.4 33 7.77 8 30 37 1020 0 17.3 21.9 31.9 83.5 76.2 262.0
04/09 09:40 25.2 33 7.68 7.8 30 41 1019.9 0 17.1 21.8 31.7 82.9 75.4 259.1
04/09 09:30 24.8 35 7.97 8.3 28 35 1019.8 0 17.8 22.3 32.8 85.9 79.0 271.7
04/09 09:20 24.1 35 7.66 7.7 26 33 1019.9 0 17.1 22.0 32.1 83.8 76.2 261.8
04/09 09:10 23.6 35 7.44 7.3 28 33 1019.9 0 16.7 21.8 31.5 82.3 74.2 254.8
04/09 09:00 23.4 37 7.78 7.9 28 33 1019.9 0 17.4 22.4 32.7 85.6 78.2 268.8
04/09 08:50 22.9 36 7.36 7.1 26 32 1019.9 0 16.6 21.9 31.5 82.3 73.9 253.8
04/09 08:40 22.5 36 7.19 6.7 22 26 1020 0 16.2 21.8 31.1 81.2 72.4 248.3
04/09 08:30 22.4 35 6.95 6.2 19 24 1020 0 15.7 21.4 30.3 79.1 69.8 239.2
04/09 08:20 22.1 36 7.03 6.3 22 28 1019.9 0 15.9 21.6 30.7 80.1 71.0 243.2
04/09 08:10 21.7 37 7.06 6.4 22 28 1019.5 0 16.0 21.7 30.9 80.7 71.6 245.5
04/09 08:00 20.9 39 7.1 6.4 20 24 1019.2 0 16.1 22.0 31.3 81.9 72.8 249.5
04/09 07:50 19.8 43 7.34 6.9 19 22 1019.3 0 16.6 22.6 32.6 85.3 76.6 262.6
04/09 07:40 18.8 46 7.41 6.9 17 19 1019.2 0 16.8 22.9 33.3 87.0 78.3 268.8
04/09 07:30 18.3 47 7.35 6.8 17 20 1019 0 16.7 23.0 33.2 86.9 78.1 267.9
04/09 07:20 17.6 49 7.35 6.8 17 19 1019 0 16.8 23.1 33.5 87.7 78.8 270.2
04/09 07:10 17 51 7.38 6.8 19 20 1019 0 16.8 23.3 33.9 88.6 79.8 273.5
04/09 07:00 16.8 51 7.29 6.6 20 24 1018.8 0 16.7 23.2 33.6 87.9 78.9 270.3
04/09 06:50 16.4 53 7.4 6.8 20 22 1018.9 0 16.9 23.5 34.2 89.5 80.6 276.4
04/09 06:40 16.3 53 7.35 6.7 19 20 1018.8 0 16.8 23.5 34.1 89.1 80.1 274.6
04/09 06:30 16.2 54 7.45 6.9 19 20 1018.6 0 17.0 23.6 34.5 90.2 81.4 279.2
04/09 06:20 15.9 54 7.31 6.6 19 20 1018.6 0 16.7 23.5 34.1 89.1 80.0 274.2
04/09 06:10 16.1 54 7.4 6.8 19 20 1018.6 0 16.9 23.6 34.3 89.8 80.9 277.4
04/09 06:00 15.7 54 7.22 6.4 19 20 1018.5 0 16.6 23.4 33.8 88.4 79.1 271.0
04/09 05:50 15.9 53 7.18 6.3 20 22 1018.6 0 16.5 23.3 33.6 87.8 78.4 268.6
04/09 05:40 15.9 53 7.18 6.3 19 20 1018.5 0 16.5 23.3 33.6 87.8 78.4 268.6
04/09 05:30 16 53 7.22 6.4 19 19 1018.4 0 16.6 23.3 33.7 88.1 78.8 269.9
04/09 05:20 15.7 55 7.36 6.7 17 19 1018.4 0 16.9 23.6 34.3 89.8 80.8 277.0
04/09 05:10 15.8 54 7.27 6.5 17 19 1018.4 0 16.7 23.5 34.0 88.8 79.6 272.8
04/09 05:00 15.7 55 7.36 6.7 17 17 1018.3 0 16.9 23.6 34.3 89.8 80.8 277.0
04/09 04:50 15.7 55 7.36 6.7 17 17 1018.3 0 16.9 23.6 34.3 89.8 80.8 277.0
04/09 04:40 15.9 54 7.31 6.6 17 19 1018.4 0 16.7 23.5 34.1 89.1 80.0 274.1
04/09 04:30 15.7 55 7.36 6.7 17 17 1018.3 0 16.9 23.6 34.3 89.8 80.8 277.0

Last Refresh: 04-Sep-2026 20:43:59

Bureau of Meteorology